createdAt,value
2019-05-12T00:00:09.522Z,1014.80
2019-05-12T00:01:09.542Z,1014.75
2019-05-12T00:02:09.510Z,1014.76
2019-05-12T00:03:09.514Z,1014.79
2019-05-12T00:04:09.483Z,1014.76
2019-05-12T00:05:09.472Z,1014.82
2019-05-12T00:06:09.454Z,1014.78
2019-05-12T00:07:09.456Z,1014.80
2019-05-12T00:08:09.446Z,1014.79
2019-05-12T00:09:09.449Z,1014.74
2019-05-12T00:10:09.416Z,1014.82
2019-05-12T00:11:09.415Z,1014.84
2019-05-12T00:12:09.391Z,1014.89
2019-05-12T00:13:09.378Z,1014.89
2019-05-12T00:14:09.375Z,1014.88
2019-05-12T00:15:09.363Z,1014.85
2019-05-12T00:16:09.350Z,1014.88
2019-05-12T00:17:09.333Z,1014.93
2019-05-12T00:18:09.460Z,1014.87
2019-05-12T00:19:09.413Z,1014.95
2019-05-12T00:20:09.313Z,1014.91
2019-05-12T00:21:09.285Z,1014.92
2019-05-12T00:22:09.279Z,1014.95
2019-05-12T00:23:23.815Z,1014.93
2019-05-12T00:24:10.288Z,1014.90
2019-05-12T00:25:09.243Z,1015.02
2019-05-12T00:26:09.235Z,1014.96
2019-05-12T00:27:09.241Z,1015.03
2019-05-12T00:28:09.222Z,1015.07
2019-05-12T00:29:09.201Z,1015.02
2019-05-12T00:30:10.262Z,1015.12
2019-05-12T00:31:09.182Z,1015.11
2019-05-12T00:32:09.167Z,1015.06
2019-05-12T00:33:09.693Z,1015.08
2019-05-12T00:34:09.154Z,1015.07
2019-05-12T00:35:09.196Z,1015.10
2019-05-12T00:36:09.133Z,1015.13
2019-05-12T00:37:09.127Z,1015.14
2019-05-12T00:38:09.548Z,1015.09
2019-05-12T00:39:09.100Z,1015.09
2019-05-12T00:40:09.078Z,1015.14
2019-05-12T00:41:09.079Z,1015.13
2019-05-12T00:42:09.068Z,1015.23
2019-05-12T00:43:09.160Z,1015.14
2019-05-12T00:44:09.172Z,1015.20
2019-05-12T00:45:09.020Z,1015.19
2019-05-12T00:46:09.024Z,1015.17
2019-05-12T00:47:09.004Z,1015.19
2019-05-12T00:48:09.627Z,1015.22
2019-05-12T00:49:08.979Z,1015.27
2019-05-12T00:50:08.980Z,1015.33
2019-05-12T00:51:08.977Z,1015.33
2019-05-12T00:52:08.945Z,1015.29
2019-05-12T00:53:09.538Z,1015.32
2019-05-12T00:54:09.437Z,1015.31
2019-05-12T00:55:08.937Z,1015.33
2019-05-12T00:56:08.902Z,1015.30
2019-05-12T00:57:08.888Z,1015.32
2019-05-12T00:58:08.955Z,1015.41
2019-05-12T00:59:08.863Z,1015.34
2019-05-12T01:00:08.911Z,1015.35
2019-05-12T01:01:08.848Z,1015.37
2019-05-12T01:02:08.830Z,1015.43
2019-05-12T01:03:09.106Z,1015.41
2019-05-12T01:04:09.138Z,1015.44
2019-05-12T01:05:08.829Z,1015.46
2019-05-12T01:06:08.809Z,1015.47
2019-05-12T01:07:08.812Z,1015.48
2019-05-12T01:08:09.477Z,1015.42
2019-05-12T01:09:09.143Z,1015.48
2019-05-12T01:10:08.890Z,1015.52
2019-05-12T01:11:08.863Z,1015.55
2019-05-12T01:12:08.729Z,1015.57
2019-05-12T01:13:09.027Z,1015.56
2019-05-12T01:14:08.834Z,1015.57
2019-05-12T01:15:08.687Z,1015.53
2019-05-12T01:16:08.676Z,1015.54
2019-05-12T01:17:08.671Z,1015.62
2019-05-12T01:18:09.659Z,1015.54
2019-05-12T01:19:08.642Z,1015.61
2019-05-12T01:20:09.019Z,1015.58
2019-05-12T01:21:08.617Z,1015.53
2019-05-12T01:22:08.622Z,1015.65
2019-05-12T01:23:08.964Z,1015.71
2019-05-12T01:24:09.132Z,1015.62
2019-05-12T01:25:08.860Z,1015.70
2019-05-12T01:26:08.877Z,1015.60
2019-05-12T01:27:08.730Z,1015.69
2019-05-12T01:28:08.611Z,1015.68
2019-05-12T01:29:08.728Z,1015.68
2019-05-12T01:30:09.006Z,1015.66
2019-05-12T01:31:08.644Z,1015.76
2019-05-12T01:32:08.499Z,1015.73
2019-05-12T01:33:08.996Z,1015.75
2019-05-12T01:34:08.481Z,1015.78
2019-05-12T01:35:08.461Z,1015.77
2019-05-12T01:36:08.447Z,1015.78
2019-05-12T01:37:08.437Z,1015.80
2019-05-12T01:38:08.576Z,1015.82
2019-05-12T01:39:08.526Z,1015.84
2019-05-12T01:40:09.002Z,1015.85
2019-05-12T01:41:08.816Z,1015.85
2019-05-12T01:42:09.133Z,1015.86
2019-05-12T01:43:08.926Z,1015.83
2019-05-12T01:44:08.964Z,1015.87
2019-05-12T01:45:09.338Z,1015.90
2019-05-12T01:46:08.337Z,1015.86
2019-05-12T01:47:08.451Z,1015.99
2019-05-12T01:48:09.219Z,1015.98
2019-05-12T01:49:08.577Z,1016.01
2019-05-12T01:50:09.177Z,1016.00
2019-05-12T01:51:08.500Z,1016.04
2019-05-12T01:52:08.720Z,1016.05
2019-05-12T01:53:08.626Z,1016.07
2019-05-12T01:54:14.442Z,1016.11
2019-05-12T01:55:09.243Z,1016.11
2019-05-12T01:56:08.312Z,1016.10
2019-05-12T01:57:08.243Z,1016.15
2019-05-12T01:58:08.559Z,1016.15
2019-05-12T01:59:08.344Z,1016.14
2019-05-12T02:00:08.192Z,1016.15
2019-05-12T02:01:08.356Z,1016.18
2019-05-12T02:02:08.648Z,1016.19
2019-05-12T02:03:09.040Z,1016.18
2019-05-12T02:04:08.169Z,1016.22
2019-05-12T02:05:08.748Z,1016.22
2019-05-12T02:06:08.469Z,1016.21
2019-05-12T02:07:08.389Z,1016.26
2019-05-12T02:08:09.688Z,1016.22
2019-05-12T02:09:08.140Z,1016.33
2019-05-12T02:10:09.320Z,1016.32
2019-05-12T02:11:08.060Z,1016.32
2019-05-12T02:12:08.298Z,1016.35
2019-05-12T02:13:08.186Z,1016.38
2019-05-12T02:14:09.280Z,1016.36
2019-05-12T02:15:08.343Z,1016.29
2019-05-12T02:16:08.361Z,1016.47
2019-05-12T02:17:08.777Z,1016.45
2019-05-12T02:18:09.126Z,1016.43
2019-05-12T02:19:09.071Z,1016.43
2019-05-12T02:20:07.962Z,1016.45
2019-05-12T02:21:08.392Z,1016.48
2019-05-12T02:22:08.486Z,1016.47
2019-05-12T02:23:09.068Z,1016.52
2019-05-12T02:24:12.182Z,1016.53
2019-05-12T02:25:09.537Z,1016.45
2019-05-12T02:26:08.324Z,1016.53
2019-05-12T02:27:08.305Z,1016.54
2019-05-12T02:28:09.252Z,1016.49
2019-05-12T02:29:08.107Z,1016.53
2019-05-12T02:30:09.696Z,1016.51
2019-05-12T02:31:09.563Z,1016.50
2019-05-12T02:32:07.827Z,1016.53
2019-05-12T02:33:07.840Z,1016.64
2019-05-12T02:34:07.806Z,1016.54
2019-05-12T02:35:07.810Z,1016.61
2019-05-12T02:36:07.781Z,1016.56
2019-05-12T02:37:07.768Z,1016.53
2019-05-12T02:38:07.760Z,1016.49
2019-05-12T02:39:07.754Z,1016.60
2019-05-12T02:40:07.743Z,1016.54
2019-05-12T02:41:07.731Z,1016.52
2019-05-12T02:42:07.712Z,1016.58
2019-05-12T02:43:07.735Z,1016.57
2019-05-12T02:44:07.693Z,1016.52
2019-05-12T02:45:07.688Z,1016.52
2019-05-12T02:46:07.681Z,1016.53
2019-05-12T02:47:07.651Z,1016.52
2019-05-12T02:48:07.669Z,1016.51
2019-05-12T02:49:07.634Z,1016.55
2019-05-12T02:50:07.626Z,1016.59
2019-05-12T02:51:07.621Z,1016.55
2019-05-12T02:52:07.602Z,1016.54
2019-05-12T02:53:07.746Z,1016.58
2019-05-12T02:54:07.645Z,1016.62
2019-05-12T02:55:07.669Z,1016.65
2019-05-12T02:56:07.561Z,1016.65
2019-05-12T02:57:07.552Z,1016.69
2019-05-12T02:58:07.530Z,1016.73
2019-05-12T02:59:07.528Z,1016.66
2019-05-12T03:00:07.516Z,1016.69
2019-05-12T03:01:07.494Z,1016.75
2019-05-12T03:02:07.499Z,1016.77
2019-05-12T03:03:07.485Z,1016.78
2019-05-12T03:04:07.463Z,1016.73
2019-05-12T03:05:07.527Z,1016.73
2019-05-12T03:06:07.446Z,1016.82
2019-05-12T03:07:07.434Z,1016.83
2019-05-12T03:08:07.430Z,1016.88
2019-05-12T03:09:07.579Z,1016.87
2019-05-12T03:10:07.393Z,1016.87
2019-05-12T03:11:07.411Z,1016.87
2019-05-12T03:12:07.376Z,1016.93
2019-05-12T03:13:07.376Z,1016.95
2019-05-12T03:14:07.367Z,1016.96
2019-05-12T03:15:07.342Z,1016.96
2019-05-12T03:16:07.342Z,1017.02
2019-05-12T03:17:07.328Z,1017.01
2019-05-12T03:18:07.395Z,1017.03
2019-05-12T03:19:07.320Z,1017.02
2019-05-12T03:20:07.283Z,1017.02
2019-05-12T03:21:07.277Z,1017.10
2019-05-12T03:22:07.266Z,1017.03
2019-05-12T03:23:07.325Z,1017.08
2019-05-12T03:24:07.246Z,1017.05
2019-05-12T03:25:16.002Z,1017.16
2019-05-12T03:26:08.221Z,1017.13
2019-05-12T03:27:07.213Z,1017.13
2019-05-12T03:28:09.319Z,1017.20
2019-05-12T03:29:07.210Z,1017.11
2019-05-12T03:30:11.309Z,1017.16
2019-05-12T03:31:08.838Z,1017.15
2019-05-12T03:32:08.687Z,1017.22
2019-05-12T03:33:11.107Z,1017.15
2019-05-12T03:34:10.177Z,1017.16
2019-05-12T03:35:08.846Z,1017.22
2019-05-12T03:36:09.541Z,1017.24
2019-05-12T03:37:08.289Z,1017.20
2019-05-12T03:38:07.136Z,1017.23
2019-05-12T03:39:07.076Z,1017.20
2019-05-12T03:40:07.062Z,1017.23
2019-05-12T03:41:07.052Z,1017.25
2019-05-12T03:42:07.056Z,1017.29
2019-05-12T03:43:07.039Z,1017.26
2019-05-12T03:44:07.025Z,1017.33
2019-05-12T03:45:07.019Z,1017.30
2019-05-12T03:46:06.994Z,1017.32
2019-05-12T03:47:06.990Z,1017.37
2019-05-12T03:48:06.981Z,1017.37
2019-05-12T03:49:06.959Z,1017.41
2019-05-12T03:50:06.949Z,1017.40
2019-05-12T03:51:06.945Z,1017.40
2019-05-12T03:52:06.941Z,1017.42
2019-05-12T03:53:10.791Z,1017.43
2019-05-12T03:54:06.915Z,1017.46
2019-05-12T03:55:26.285Z,1017.41
2019-05-12T03:56:07.882Z,1017.44
2019-05-12T03:57:06.910Z,1017.49
2019-05-12T03:58:06.889Z,1017.51
2019-05-12T03:59:06.864Z,1017.47
2019-05-12T04:00:06.840Z,1017.52
2019-05-12T04:01:06.835Z,1017.59
2019-05-12T04:02:06.810Z,1017.49
2019-05-12T04:03:06.811Z,1017.49
2019-05-12T04:04:06.808Z,1017.56
2019-05-12T04:05:06.781Z,1017.55
2019-05-12T04:06:06.772Z,1017.57
2019-05-12T04:07:06.759Z,1017.57
2019-05-12T04:08:06.918Z,1017.57
2019-05-12T04:09:06.741Z,1017.59
2019-05-12T04:10:06.739Z,1017.59
2019-05-12T04:11:06.712Z,1017.73
2019-05-12T04:12:06.701Z,1017.70
2019-05-12T04:13:06.696Z,1017.61
2019-05-12T04:14:06.684Z,1017.66
2019-05-12T04:15:06.670Z,1017.70
2019-05-12T04:16:06.677Z,1017.76
2019-05-12T04:17:06.661Z,1017.75
2019-05-12T04:18:06.682Z,1017.83
2019-05-12T04:19:06.626Z,1017.85
2019-05-12T04:20:06.619Z,1017.90
2019-05-12T04:21:06.625Z,1017.88
2019-05-12T04:22:06.617Z,1017.84
2019-05-12T04:23:07.140Z,1017.88
2019-05-12T04:24:06.574Z,1017.90
2019-05-12T04:25:06.667Z,1017.99
2019-05-12T04:26:11.799Z,1018.01
2019-05-12T04:27:07.535Z,1017.96
2019-05-12T04:28:06.523Z,1018.05
2019-05-12T04:29:06.515Z,1018.07
2019-05-12T04:30:06.508Z,1018.10
2019-05-12T04:31:06.489Z,1018.12
2019-05-12T04:32:06.479Z,1018.16
2019-05-12T04:33:06.468Z,1018.13
2019-05-12T04:34:06.467Z,1018.14
2019-05-12T04:35:06.453Z,1018.19
2019-05-12T04:36:06.434Z,1018.17
2019-05-12T04:37:06.430Z,1018.19
2019-05-12T04:38:06.421Z,1018.25
2019-05-12T04:39:06.418Z,1018.24
2019-05-12T04:40:06.401Z,1018.24
2019-05-12T04:41:06.378Z,1018.35
2019-05-12T04:42:06.365Z,1018.28
2019-05-12T04:43:06.911Z,1018.35
2019-05-12T04:44:06.501Z,1018.37
2019-05-12T04:45:06.333Z,1018.31
2019-05-12T04:46:06.332Z,1018.32
2019-05-12T04:47:06.312Z,1018.41
2019-05-12T04:48:06.536Z,1018.37
2019-05-12T04:49:06.296Z,1018.41
2019-05-12T04:50:06.282Z,1018.42
2019-05-12T04:51:06.274Z,1018.51
2019-05-12T04:52:06.358Z,1018.47
2019-05-12T04:53:07.010Z,1018.45
2019-05-12T04:54:06.598Z,1018.57
2019-05-12T04:55:06.238Z,1018.56
2019-05-12T04:56:15.644Z,1018.52
2019-05-12T04:57:07.207Z,1018.59
2019-05-12T04:58:06.410Z,1018.60
2019-05-12T04:59:06.177Z,1018.56
2019-05-12T05:00:06.170Z,1018.61
2019-05-12T05:01:06.646Z,1018.62
2019-05-12T05:02:06.142Z,1018.69
2019-05-12T05:03:06.293Z,1018.79
2019-05-12T05:04:06.195Z,1018.70
2019-05-12T05:05:06.117Z,1018.72
2019-05-12T05:06:06.105Z,1018.78
2019-05-12T05:07:06.093Z,1018.71
2019-05-12T05:08:06.075Z,1018.72
2019-05-12T05:09:06.063Z,1018.81
2019-05-12T05:10:06.058Z,1018.75
2019-05-12T05:11:06.047Z,1018.82
2019-05-12T05:12:06.039Z,1018.87
2019-05-12T05:13:06.022Z,1018.81
2019-05-12T05:14:06.011Z,1018.82
2019-05-12T05:15:06.002Z,1018.90
2019-05-12T05:16:05.991Z,1018.90
2019-05-12T05:17:06.231Z,1018.89
2019-05-12T05:18:06.765Z,1018.93
2019-05-12T05:19:05.954Z,1018.97
2019-05-12T05:20:05.945Z,1018.97
2019-05-12T05:21:05.936Z,1019.01
2019-05-12T05:22:05.925Z,1019.04
2019-05-12T05:23:05.913Z,1019.05
2019-05-12T05:24:05.898Z,1019.21
2019-05-12T05:25:05.900Z,1019.21
2019-05-12T05:26:19.859Z,1019.18
2019-05-12T05:27:06.864Z,1019.22
2019-05-12T05:28:05.854Z,1019.36
2019-05-12T05:29:05.841Z,1019.33
2019-05-12T05:30:05.828Z,1019.33
2019-05-12T05:31:05.820Z,1019.34
2019-05-12T05:32:05.812Z,1019.45
2019-05-12T05:33:05.798Z,1019.59
2019-05-12T05:34:05.788Z,1019.39
2019-05-12T05:35:07.646Z,1019.39
2019-05-12T05:36:08.853Z,1019.40
2019-05-12T05:37:06.753Z,1019.42
2019-05-12T05:38:05.747Z,1019.43
2019-05-12T05:39:05.741Z,1019.47
2019-05-12T05:40:05.781Z,1019.56
2019-05-12T05:41:10.318Z,1019.56
2019-05-12T05:42:05.701Z,1019.48
2019-05-12T05:43:17.878Z,1019.50
2019-05-12T05:44:06.676Z,1019.51
2019-05-12T05:45:10.493Z,1019.57
2019-05-12T05:46:07.978Z,1019.59
2019-05-12T05:47:05.637Z,1019.60
2019-05-12T05:48:10.026Z,1019.59
2019-05-12T05:49:05.645Z,1019.65
2019-05-12T05:50:05.614Z,1019.63
2019-05-12T05:51:08.927Z,1019.61
2019-05-12T05:52:05.603Z,1019.81
2019-05-12T05:53:09.325Z,1019.60
2019-05-12T05:54:06.561Z,1019.68
2019-05-12T05:55:14.355Z,1019.69
2019-05-12T05:56:06.555Z,1019.71
2019-05-12T05:57:06.312Z,1019.77
2019-05-12T05:58:10.058Z,1019.78
2019-05-12T05:59:05.509Z,1019.84
2019-05-12T06:00:07.173Z,1019.83
2019-05-12T06:01:08.184Z,1019.85
2019-05-12T06:02:05.480Z,1019.88
2019-05-12T06:03:06.149Z,1019.89
2019-05-12T06:04:08.691Z,1019.88
2019-05-12T06:05:05.444Z,1019.85
2019-05-12T06:06:10.830Z,1019.87
2019-05-12T06:07:06.437Z,1019.93
2019-05-12T06:08:09.545Z,1019.88
2019-05-12T06:09:06.391Z,1019.93
2019-05-12T06:10:05.389Z,1019.99
2019-05-12T06:11:08.434Z,1019.97
2019-05-12T06:12:09.658Z,1019.91
2019-05-12T06:13:05.358Z,1019.94
2019-05-12T06:14:11.421Z,1020.04
2019-05-12T06:15:08.862Z,1019.99
2019-05-12T06:16:05.320Z,1020.03
2019-05-12T06:17:05.311Z,1020.09
2019-05-12T06:18:05.299Z,1020.09
2019-05-12T06:19:05.289Z,1020.12
2019-05-12T06:20:05.276Z,1020.05
2019-05-12T06:21:05.265Z,1020.06
2019-05-12T06:22:08.931Z,1020.10
2019-05-12T06:23:06.245Z,1020.11
2019-05-12T06:24:08.656Z,1020.04
2019-05-12T06:25:06.219Z,1020.10
2019-05-12T06:26:05.244Z,1020.10
2019-05-12T06:27:14.391Z,1020.14
2019-05-12T06:28:08.685Z,1020.15
2019-05-12T06:29:05.181Z,1020.12
2019-05-12T06:30:06.378Z,1020.18
2019-05-12T06:31:05.154Z,1020.23
2019-05-12T06:32:09.272Z,1020.18
2019-05-12T06:33:06.133Z,1020.19
2019-05-12T06:34:13.696Z,1020.29
2019-05-12T06:35:06.114Z,1020.31
2019-05-12T06:36:07.457Z,1020.29
2019-05-12T06:37:12.062Z,1020.24
2019-05-12T06:38:06.083Z,1020.32
2019-05-12T06:39:05.080Z,1020.22
2019-05-12T06:40:05.063Z,1020.20
2019-05-12T06:41:05.085Z,1020.23
2019-05-12T06:42:12.290Z,1020.21
2019-05-12T06:43:06.018Z,1020.24
2019-05-12T06:44:08.996Z,1020.25
2019-05-12T06:45:05.999Z,1020.26
2019-05-12T06:46:04.999Z,1020.27
2019-05-12T06:47:08.107Z,1020.30
2019-05-12T06:48:04.988Z,1020.34
2019-05-12T06:49:12.776Z,1020.30
2019-05-12T06:50:05.996Z,1020.27
2019-05-12T06:51:09.286Z,1020.40
2019-05-12T06:52:07.223Z,1020.43
2019-05-12T06:53:05.414Z,1020.40
2019-05-12T06:54:10.041Z,1020.46
2019-05-12T06:55:05.888Z,1020.38
2019-05-12T06:56:09.409Z,1020.50
2019-05-12T06:57:20.991Z,1020.49
2019-05-12T06:58:05.854Z,1020.44
2019-05-12T06:59:09.894Z,1020.43
2019-05-12T07:00:06.014Z,1020.43
2019-05-12T07:01:10.502Z,1020.50
2019-05-12T07:02:05.809Z,1020.49
2019-05-12T07:03:04.819Z,1020.47
2019-05-12T07:04:09.927Z,1020.41
2019-05-12T07:05:05.802Z,1020.45
2019-05-12T07:06:09.106Z,1020.46
2019-05-12T07:07:05.773Z,1020.49
2019-05-12T07:08:04.757Z,1020.46
2019-05-12T07:09:09.509Z,1020.39
2019-05-12T07:10:11.745Z,1020.48
2019-05-12T07:11:06.221Z,1020.49
2019-05-12T07:12:07.162Z,1020.45
2019-05-12T07:13:05.924Z,1020.52
2019-05-12T07:14:12.932Z,1020.43
2019-05-12T07:15:05.694Z,1020.45
2019-05-12T07:16:04.655Z,1020.54
2019-05-12T07:17:06.095Z,1020.53
2019-05-12T07:18:04.637Z,1020.55
2019-05-12T07:19:09.635Z,1020.55
2019-05-12T07:20:05.619Z,1020.57
2019-05-12T07:21:09.321Z,1020.73
2019-05-12T07:22:18.874Z,1020.65
2019-05-12T07:23:05.579Z,1020.61
2019-05-12T07:24:06.765Z,1020.70
2019-05-12T07:25:08.215Z,1020.72
2019-05-12T07:26:12.780Z,1020.65
2019-05-12T07:27:09.218Z,1020.63
2019-05-12T07:28:07.771Z,1020.69
2019-05-12T07:29:04.592Z,1020.72
2019-05-12T07:30:04.819Z,1020.70
2019-05-12T07:31:04.499Z,1020.72
2019-05-12T07:32:07.192Z,1020.72
2019-05-12T07:33:05.459Z,1020.75
2019-05-12T07:34:07.682Z,1020.77
2019-05-12T07:35:04.439Z,1020.82
2019-05-12T07:36:06.397Z,1020.74
2019-05-12T07:37:04.507Z,1020.78
2019-05-12T07:38:04.985Z,1020.82
2019-05-12T07:39:05.519Z,1020.82
2019-05-12T07:40:04.953Z,1020.86
2019-05-12T07:41:08.858Z,1020.85
2019-05-12T07:42:04.440Z,1020.84
2019-05-12T07:43:04.427Z,1020.86
2019-05-12T07:44:04.344Z,1020.88
2019-05-12T07:45:04.333Z,1020.86
2019-05-12T07:46:07.058Z,1020.81
2019-05-12T07:47:04.305Z,1020.84
2019-05-12T07:48:10.019Z,1020.94
2019-05-12T07:49:05.283Z,1020.85
2019-05-12T07:50:04.588Z,1020.95
2019-05-12T07:51:04.344Z,1020.90
2019-05-12T07:52:04.250Z,1020.85
2019-05-12T07:53:04.556Z,1020.89
2019-05-12T07:54:04.339Z,1020.91
2019-05-12T07:55:04.451Z,1020.97
2019-05-12T07:56:04.330Z,1020.92
2019-05-12T07:57:12.171Z,1020.86
2019-05-12T07:58:13.701Z,1020.97
2019-05-12T07:59:05.186Z,1020.99
2019-05-12T08:00:04.169Z,1020.99
2019-05-12T08:01:07.813Z,1021.02
2019-05-12T08:02:04.136Z,1021.09
2019-05-12T08:03:18.732Z,1021.00
2019-05-12T08:04:05.120Z,1021.15
2019-05-12T08:05:04.157Z,1021.06
2019-05-12T08:06:04.690Z,1021.08
2019-05-12T08:07:04.097Z,1021.01
2019-05-12T08:08:10.906Z,1021.15
2019-05-12T08:09:05.677Z,1021.06
2019-05-12T08:10:07.227Z,1021.10
2019-05-12T08:11:05.066Z,1021.13
2019-05-12T08:12:04.169Z,1021.16
2019-05-12T08:13:04.660Z,1021.15
2019-05-12T08:14:04.012Z,1021.16
2019-05-12T08:15:07.739Z,1021.20
2019-05-12T08:16:05.074Z,1021.15
2019-05-12T08:17:11.062Z,1021.09
2019-05-12T08:18:07.953Z,1021.16
2019-05-12T08:19:04.231Z,1021.15
2019-05-12T08:20:04.472Z,1021.11
2019-05-12T08:21:03.953Z,1021.09
2019-05-12T08:22:04.394Z,1021.08
2019-05-12T08:23:08.655Z,1021.19
2019-05-12T08:24:04.916Z,1021.15
2019-05-12T08:25:04.264Z,1021.22
2019-05-12T08:26:12.272Z,1021.17
2019-05-12T08:27:06.403Z,1021.21
2019-05-12T08:28:12.529Z,1021.16
2019-05-12T08:29:04.862Z,1021.05
2019-05-12T08:30:06.173Z,1021.12
2019-05-12T08:31:03.814Z,1021.13
2019-05-12T08:32:03.901Z,1021.19
2019-05-12T08:33:09.246Z,1021.18
2019-05-12T08:34:04.789Z,1021.30
2019-05-12T08:35:05.059Z,1021.15
2019-05-12T08:36:11.339Z,1021.21
2019-05-12T08:37:04.747Z,1021.26
2019-05-12T08:38:04.104Z,1021.18
2019-05-12T08:39:06.102Z,1021.20
2019-05-12T08:40:07.726Z,1021.16
2019-05-12T08:41:04.271Z,1021.26
2019-05-12T08:42:04.121Z,1021.29
2019-05-12T08:43:08.186Z,1021.13
2019-05-12T08:44:04.802Z,1021.21
2019-05-12T08:45:05.214Z,1021.22
2019-05-12T08:46:09.900Z,1021.29
2019-05-12T08:47:05.173Z,1021.34
2019-05-12T08:48:03.919Z,1021.43
2019-05-12T08:49:05.351Z,1021.29
2019-05-12T08:50:04.881Z,1021.28
2019-05-12T08:51:05.315Z,1021.28
2019-05-12T08:52:04.669Z,1021.31
2019-05-12T08:53:04.726Z,1021.33
2019-05-12T08:54:07.805Z,1021.40
2019-05-12T08:55:04.309Z,1021.41
2019-05-12T08:56:06.547Z,1021.35
2019-05-12T08:57:04.527Z,1021.44
2019-05-12T08:58:03.867Z,1021.39
2019-05-12T08:59:04.353Z,1021.42
2019-05-12T09:00:08.445Z,1021.50
2019-05-12T09:01:04.603Z,1021.44
2019-05-12T09:02:08.909Z,1021.52
2019-05-12T09:03:04.476Z,1021.47
2019-05-12T09:04:06.502Z,1021.50
2019-05-12T09:05:04.787Z,1021.53
2019-05-12T09:06:04.035Z,1021.45
2019-05-12T09:07:04.367Z,1021.53
2019-05-12T09:08:03.846Z,1021.74
2019-05-12T09:09:03.563Z,1021.62
2019-05-12T09:10:04.127Z,1021.55
2019-05-12T09:11:03.632Z,1021.61
2019-05-12T09:12:03.644Z,1021.51
2019-05-12T09:13:04.169Z,1021.57
2019-05-12T09:14:05.715Z,1021.53
2019-05-12T09:15:04.776Z,1021.55
2019-05-12T09:16:04.355Z,1021.53
2019-05-12T09:17:07.208Z,1021.59
2019-05-12T09:18:04.732Z,1021.62
2019-05-12T09:19:04.917Z,1021.59
2019-05-12T09:20:08.171Z,1021.76
2019-05-12T09:21:04.256Z,1021.69
2019-05-12T09:22:04.868Z,1021.59
2019-05-12T09:23:04.883Z,1021.50
2019-05-12T09:24:04.286Z,1021.54
2019-05-12T09:25:06.852Z,1021.61
2019-05-12T09:26:04.239Z,1021.64
2019-05-12T09:27:06.931Z,1021.66
2019-05-12T09:28:04.175Z,1021.66
2019-05-12T09:29:03.530Z,1021.54
2019-05-12T09:30:07.624Z,1021.67
2019-05-12T09:31:04.142Z,1021.65
2019-05-12T09:32:05.377Z,1021.79
2019-05-12T09:33:04.378Z,1021.67
2019-05-12T09:34:11.343Z,1021.66
2019-05-12T09:35:04.175Z,1021.66
2019-05-12T09:36:04.301Z,1021.66
2019-05-12T09:37:04.065Z,1021.68
2019-05-12T09:38:05.949Z,1021.70
2019-05-12T09:39:05.300Z,1021.59
2019-05-12T09:40:04.607Z,1021.54
2019-05-12T09:41:05.250Z,1021.57
2019-05-12T09:42:03.761Z,1021.62
2019-05-12T09:43:08.751Z,1021.63
2019-05-12T09:44:04.693Z,1021.64
2019-05-12T09:45:06.050Z,1021.69
2019-05-12T09:46:04.315Z,1021.60
2019-05-12T09:47:04.111Z,1021.59
2019-05-12T09:48:04.804Z,1021.57
2019-05-12T09:49:04.240Z,1021.67
2019-05-12T09:50:04.382Z,1021.65
2019-05-12T09:51:05.832Z,1021.64
2019-05-12T09:52:03.685Z,1021.65
2019-05-12T09:53:09.279Z,1021.64
2019-05-12T09:54:05.276Z,1021.65
2019-05-12T09:55:04.249Z,1021.63
2019-05-12T09:56:04.473Z,1021.63
2019-05-12T09:57:04.418Z,1021.60
2019-05-12T09:58:03.985Z,1021.64
2019-05-12T09:59:17.114Z,1021.86
2019-05-12T10:00:04.436Z,1021.62
2019-05-12T10:01:03.607Z,1021.69
2019-05-12T10:02:03.697Z,1021.62
2019-05-12T10:03:04.840Z,1021.52
2019-05-12T10:04:03.475Z,1021.56
2019-05-12T10:05:03.946Z,1021.65
2019-05-12T10:06:03.748Z,1021.66
2019-05-12T10:07:03.841Z,1021.93
2019-05-12T10:08:04.612Z,1021.72
2019-05-12T10:09:03.421Z,1021.79
2019-05-12T10:10:03.656Z,1021.83
2019-05-12T10:11:03.773Z,1021.73
2019-05-12T10:12:05.346Z,1021.85
2019-05-12T10:13:04.693Z,1021.83
2019-05-12T10:14:08.532Z,1021.78
2019-05-12T10:15:04.254Z,1021.68
2019-05-12T10:16:04.909Z,1021.58
2019-05-12T10:17:03.789Z,1021.71
2019-05-12T10:18:06.579Z,1021.67
2019-05-12T10:19:04.091Z,1021.81
2019-05-12T10:20:02.583Z,1021.78
2019-05-12T10:21:02.641Z,1021.65
2019-05-12T10:22:02.555Z,1021.84
2019-05-12T10:23:04.280Z,1021.60
2019-05-12T10:24:04.947Z,1021.70
2019-05-12T10:25:04.034Z,1021.64
2019-05-12T10:26:09.856Z,1021.80
2019-05-12T10:27:03.908Z,1021.85
2019-05-12T10:28:11.133Z,1021.77
2019-05-12T10:29:16.423Z,1021.64
2019-05-12T10:30:11.961Z,1021.65
2019-05-12T10:31:04.207Z,1021.64
2019-05-12T10:32:04.022Z,1021.63
2019-05-12T10:33:03.822Z,1021.75
2019-05-12T10:34:03.367Z,1021.73
2019-05-12T10:35:02.429Z,1021.87
2019-05-12T10:36:05.253Z,1021.89
2019-05-12T10:37:04.141Z,1021.76
2019-05-12T10:38:08.578Z,1021.91
2019-05-12T10:39:04.285Z,1022.03
2019-05-12T10:40:03.709Z,1021.87
2019-05-12T10:41:04.306Z,1021.87
2019-05-12T10:42:02.365Z,1021.85
2019-05-12T10:43:04.527Z,1021.89
2019-05-12T10:44:04.080Z,1021.94
2019-05-12T10:45:04.192Z,1021.92
2019-05-12T10:46:04.174Z,1022.06
2019-05-12T10:47:04.206Z,1021.98
2019-05-12T10:48:03.645Z,1022.07
2019-05-12T10:49:03.921Z,1022.07
2019-05-12T10:50:02.424Z,1021.98
2019-05-12T10:51:02.275Z,1021.86
2019-05-12T10:52:03.952Z,1021.98
2019-05-12T10:53:04.530Z,1021.94
2019-05-12T10:54:11.808Z,1021.87
2019-05-12T10:55:04.463Z,1021.86
2019-05-12T10:56:02.172Z,1021.86
2019-05-12T10:57:04.747Z,1021.92
2019-05-12T10:58:06.570Z,1021.91
2019-05-12T10:59:04.297Z,1021.91
2019-05-12T11:00:04.137Z,1021.92
2019-05-12T11:01:05.207Z,1021.89
2019-05-12T11:02:03.550Z,1021.88
2019-05-12T11:03:10.321Z,1021.84
2019-05-12T11:04:03.954Z,1021.96
2019-05-12T11:05:02.082Z,1021.97
2019-05-12T11:06:04.945Z,1021.93
2019-05-12T11:07:04.696Z,1021.95
2019-05-12T11:08:06.434Z,1021.86
2019-05-12T11:09:03.756Z,1021.96
2019-05-12T11:10:13.196Z,1022.00
2019-05-12T11:11:04.154Z,1022.04
2019-05-12T11:12:03.428Z,1021.95
2019-05-12T11:13:08.233Z,1021.93
2019-05-12T11:14:03.910Z,1022.11
2019-05-12T11:15:06.671Z,1022.01
2019-05-12T11:16:03.794Z,1022.03
2019-05-12T11:17:07.064Z,1021.95
2019-05-12T11:18:02.919Z,1022.06
2019-05-12T11:19:06.365Z,1022.03
2019-05-12T11:20:04.134Z,1022.00
2019-05-12T11:21:03.601Z,1022.13
2019-05-12T11:22:03.694Z,1022.07
2019-05-12T11:23:03.489Z,1022.05
2019-05-12T11:24:03.866Z,1022.12
2019-05-12T11:25:04.073Z,1022.05
2019-05-12T11:26:03.734Z,1022.10
2019-05-12T11:27:03.922Z,1022.11
2019-05-12T11:28:03.736Z,1022.09
2019-05-12T11:29:03.651Z,1022.10
2019-05-12T11:30:04.064Z,1022.07
2019-05-12T11:31:01.775Z,1022.01
2019-05-12T11:32:01.882Z,1022.00
2019-05-12T11:33:04.044Z,1021.98
2019-05-12T11:34:01.958Z,1022.02
2019-05-12T11:35:03.936Z,1022.03
2019-05-12T11:36:01.724Z,1022.09
2019-05-12T11:37:03.421Z,1022.03
2019-05-12T11:38:04.137Z,1022.23
2019-05-12T11:39:03.616Z,1022.04
2019-05-12T11:40:04.174Z,1022.04
2019-05-12T11:41:04.114Z,1022.16
2019-05-12T11:42:03.731Z,1022.16
2019-05-12T11:43:04.149Z,1022.11
2019-05-12T11:44:03.852Z,1022.13
2019-05-12T11:45:01.697Z,1022.09
2019-05-12T11:46:01.610Z,1022.07
2019-05-12T11:47:03.718Z,1022.02
2019-05-12T11:48:07.956Z,1022.11
2019-05-12T11:49:04.387Z,1022.30
2019-05-12T11:50:05.020Z,1022.16
2019-05-12T11:51:03.936Z,1022.38
2019-05-12T11:52:07.649Z,1022.27
2019-05-12T11:53:04.262Z,1022.34
2019-05-12T11:54:03.474Z,1022.17
2019-05-12T11:55:02.499Z,1022.25
2019-05-12T11:56:02.211Z,1022.23
2019-05-12T11:57:02.489Z,1022.20
2019-05-12T11:58:09.136Z,1022.22
2019-05-12T11:59:02.462Z,1022.25
2019-05-12T12:00:02.176Z,1022.29
2019-05-12T12:01:04.712Z,1022.16
2019-05-12T12:02:02.505Z,1022.18
2019-05-12T12:03:02.956Z,1022.21
2019-05-12T12:04:03.737Z,1022.36
2019-05-12T12:05:01.396Z,1022.22